CheckWX is a tool to help pilots better visualize weather data.  It is not intended as a substitute for an official pre-flight weather briefing.

14:11:10 UTC

CZVL METAR
Edmonton / Villeneuve Airport
Edmonton, Canada
Current

1 hour ago

CZVL 201300Z AUTO 31006KT 9SM BKN120 12/12 A3006 RMK SLP188 DENSITY ALT 2300FT
Observed
Jul-20 @ 13:00 UTC
Wind
  • 310° at 6 KTS
Visibility
9 SM
Flight Rules
VFR
Cloud Levels
  • Broken at 12,000' AGL
Temperature
12°C / 54°F
Dewpoint
12°C / 54°F
Humidity
100%
Altimeter
30.06" Hg
Pressure
1017.92 hPa
Previous

2 hours ago

CZVL 201200Z AUTO 30006KT 9SM CLR 12/11 A3005 RMK SLP185
Observed
Jul-20 @ 12:00 UTC
Wind
  • 300° at 6 KTS
Visibility
9 SM
Flight Rules
VFR
Cloud Levels
  • Clear skies
Temperature
12°C / 54°F
Dewpoint
11°C / 52°F
Humidity
94%
Altimeter
30.05" Hg
Pressure
1017.62 hPa
Previous

3 hours ago

CZVL 201100Z AUTO 31007KT 9SM BKN026 OVC100 12/12 A3003 RMK SLP175 DENSITY ALT 2300FT
Observed
Jul-20 @ 11:00 UTC
Wind
  • 310° at 7 KTS
Visibility
9 SM
Flight Rules
MVFR
Cloud Levels
  • Broken at 2,600' AGL
  • Overcast at 10,000' AGL
Temperature
12°C / 54°F
Dewpoint
12°C / 54°F
Humidity
100%
Altimeter
30.03" Hg
Pressure
1016.92 hPa